KBLV Airport Information

Runway Information
Runway 14L Length 10000 ft width 150 ft
Elevation 442 ft Threshold 0 ft Heading 137
Runway 32R Length 10000 ft Width 150 ft
Elevation 442 ft Threshold 0 ft Heading 317
Runway 14R Length 8001 ft width 150 ft
Elevation 459 ft Threshold 0 ft Heading 137
Runway 32L Length 8001 ft Width 150 ft
Elevation 437 ft Threshold 200 ft Heading 317
Airport Frequencies
Type A/D Name ST LOUIS A Frequency 125.2 MHZ
Type ACP Name 126 ARW CO Frequency 138.55 MHZ
Type ATIS Name ATIS Frequency 128.7 MHZ
Type CLD Name CLNC DEL Frequency 121.75 MHZ
Type GND Name GND Frequency 119.2 MHZ
Type PMSV Name PMSV METRO Frequency 23.98 MHZ
Type POST Name 375 AW COM Frequency 130.65 MHZ
Type PTD Name PTD Frequency 139.85 MHZ
Type TWR Name TWR Frequency 118.65 MHZ
Type UNIC Name UNICOM Frequency 122.95 MHZ
Airport Navaids
Type NDB Name Belleville Frequency 362 KHZ
Type NDB Name Gooey Frequency 385 KHZ
Type TACAN Name Scott Frequency 112200 KHZ
Airport Weather Information & NOTAM
ADDS - METARS form results

(1435 UTC 18 May 2021)
Data provider http://aviationweather.gov/metar/data/
 
METAR text: KBLV 181425Z 16011KT 4SM -RA BR SCT007 OVC012 18/18 A3007 RMK CIG 005 RWY14L CIG 004 RWY32L CIG 002 RWY32R SLP184 50005 $
Conditions at: KBLV (SCOTT AFB/BELLEV, IL, US) observed 1425 UTC 18 May 2021
Temperature: 18.0°C (64°F)
Dewpoint: 18.0°C (64°F) [RH = 100%]
Pressure (altimeter): 30.07 inches Hg (1018.4 mb)
[Sea-level pressure: 1018.4 mb]
Winds: from the SSE (160 degrees) at 13 MPH (11 knots; 5.7 m/s)
Visibility: 4 miles ( 6 km)
Ceiling: 1200 feet AGL
Clouds: scattered clouds at 700 feet AGL
overcast cloud deck at 1200 feet AGL
Weather: -RA BR  (light rain, mist)
SOME DATA ABOVE MAY BE INACCURATE!!!
"$" is an indication the sensor requires maintenance

METAR text: KBLV 181401Z AUTO 16010KT 6SM -RA BR OVC008 18/18 A3007 RMK AO2 CIG 004 RWY14L CIG 004 RWY32L CIG 002 RWY32R SLP184 $
Conditions at: KBLV (SCOTT AFB/BELLEV, IL, US) observed 1401 UTC 18 May 2021
Temperature: 18.0°C (64°F)
Dewpoint: 18.0°C (64°F) [RH = 100%]
Pressure (altimeter): 30.07 inches Hg (1018.4 mb)
[Sea-level pressure: 1018.4 mb]
Winds: from the SSE (160 degrees) at 12 MPH (10 knots; 5.1 m/s)
Visibility: 6 miles (10 km)
Ceiling: 800 feet AGL
Clouds: overcast cloud deck at 800 feet AGL
Weather: -RA BR  (light rain, mist)
SOME DATA ABOVE MAY BE INACCURATE!!!
"$" is an indication the sensor requires maintenance

METAR text: KBLV 181356Z 16012KT 7SM -RA BR OVC007 17/17 A3007 RMK AO2A RAE05RAB15 CIG 004 RWY14L CIG 004 RWY32L CIG 002 RWY32R SLP184 P0011 T01740174 $
Conditions at: KBLV (SCOTT AFB/BELLEV, IL, US) observed 1356 UTC 18 May 2021
Temperature: 17.4°C (63°F)
Dewpoint: 17.4°C (63°F) [RH = 100%]
Pressure (altimeter): 30.07 inches Hg (1018.4 mb)
[Sea-level pressure: 1018.4 mb]
Winds: from the SSE (160 degrees) at 14 MPH (12 knots; 6.2 m/s)
Visibility: 7 miles (11 km)
Ceiling: 700 feet AGL
Clouds: overcast cloud deck at 700 feet AGL
Weather: -RA BR  (light rain, mist)
SOME DATA ABOVE MAY BE INACCURATE!!!
"$" is an indication the sensor requires maintenance

METAR text: KBLV 181347Z 15010KT 7SM -RA BR OVC007 17/17 A3006 RMK AO2A RAE05RAB15 CIG 004 RWY14L CIG 005 RWY32L CIG 002 RWY32R SLP181 $
Conditions at: KBLV (SCOTT AFB/BELLEV, IL, US) observed 1347 UTC 18 May 2021
Temperature: 17.0°C (63°F)
Dewpoint: 17.0°C (63°F) [RH = 100%]
Pressure (altimeter): 30.06 inches Hg (1018.0 mb)
[Sea-level pressure: 1018.1 mb]
Winds: from the SSE (150 degrees) at 12 MPH (10 knots; 5.1 m/s)
Visibility: 7 miles (11 km)
Ceiling: 700 feet AGL
Clouds: overcast cloud deck at 700 feet AGL
Weather: -RA BR  (light rain, mist)
SOME DATA ABOVE MAY BE INACCURATE!!!
"$" is an indication the sensor requires maintenance

Forecast for: KBLV (SCOTT AFB/BELLEV, IL, US)
Text: TAF KBLV 180800Z 1808/1914 11006KT 8000 -RA OVC020 QNH3005INS
Forecast period: 0800 to 1100 UTC 18 May 2021
Forecast type: FROM: standard forecast or significant change
Winds: from the ESE (110 degrees) at 7 MPH (6 knots; 3.1 m/s)
Visibility: 5 miles (8 km)
Ceiling: 2000 feet AGL
Clouds: overcast cloud deck at 2000 feet AGL
Weather: -RA  (light rain)
Text: BECMG 1811/1812 15012KT 8000 -RA OVC010 QNH3003INS
Forecast period: 1100 to 1900 UTC 18 May 2021
Forecast type: BECOMING: Conditions expected to become as follows by 1200 UTC 18 May 2021
Winds: from the SSE (150 degrees) at 14 MPH (12 knots; 6.2 m/s)
Visibility: 5 miles (8 km)
Ceiling: 1000 feet AGL
Clouds: overcast cloud deck at 1000 feet AGL
Weather: -RA  (light rain)
Text: BECMG 1819/1820 13009KT 8000 -RA OVC020 QNH3008INS
Forecast period: 1900 to 2300 UTC 18 May 2021
Forecast type: BECOMING: Conditions expected to become as follows by 2000 UTC 18 May 2021
Winds: from the SE (130 degrees) at 10 MPH (9 knots; 4.6 m/s)
Visibility: 5 miles (8 km)
Ceiling: 2000 feet AGL
Clouds: overcast cloud deck at 2000 feet AGL
Weather: -RA  (light rain)
Text: BECMG 1823/1824 15009KT 9999 NSW OVC020 QNH3003INS TX19/1822Z TN16/1811Z
Forecast period: 2300 UTC 18 May 2021 to 1400 UTC 19 May 2021
Forecast type: BECOMING: Conditions expected to become as follows by 0000 UTC 19 May 2021
Winds: from the SSE (150 degrees) at 10 MPH (9 knots; 4.6 m/s)
Visibility: 6 or more miles (10+ km)
Ceiling: 2000 feet AGL
Clouds: overcast cloud deck at 2000 feet AGL
Weather: NSW  (no significant weather)